Time;durP1;ratioP1;P1;durP2;ratioP2;P2;SDS_P1;SDS_P2;PMS_P1;PMS_P2;Temp;Humidity;BMP_temperature;BMP_pressure;BME280_temperature;BME280_humidity;BME280_pressure;Samples;Min_cycle;Max_cycle;Signal;HPM_P1;HPM_P2
2023/12/27 00:00:17;;;;;;;17.70;2.50;;;4.60;99.90;;;3.15;99.67;100995.56;4847458;28;20182;-82
2023/12/27 00:02:42;;;;;;;15.27;1.70;;;4.70;99.90;;;3.15;99.68;101009.41;4868746;28;20035;-84
2023/12/27 00:05:10;;;;;;;17.33;1.80;;;4.70;99.90;;;3.15;99.81;101019.84;4877379;28;20220;-82
2023/12/27 00:07:44;;;;;;;19.17;1.80;;;4.70;99.90;;;3.17;100.00;101025.03;4889500;28;20055;-83
2023/12/27 00:10:10;;;;;;;13.48;1.75;;;4.70;99.90;;;3.19;100.00;101021.53;4869844;28;20043;-83
2023/12/27 00:12:36;;;;;;;21.75;1.88;;;4.70;99.90;;;3.27;100.00;101026.66;4838561;28;20131;-81
2023/12/27 00:15:12;;;;;;;;;;;;;;;;;;;;;
2023/12/27 00:17:38;;;;;;;13.10;1.40;;;4.80;99.90;;;3.37;100.00;101023.06;4907561;28;20406;-84
2023/12/27 00:20:05;;;;;;;17.77;1.98;;;4.80;99.90;;;3.39;100.00;101031.72;4881753;28;20041;-83
2023/12/27 00:22:40;;;;;;;24.63;2.00;;;4.90;99.90;;;3.43;100.00;101037.72;4883929;28;20081;-83
2023/12/27 00:25:06;;;;;;;17.27;1.77;;;4.90;99.90;;;3.47;100.00;101045.47;4824764;29;20048;-82
2023/12/27 00:27:32;;;;;;;21.92;1.67;;;5.00;99.90;;;3.49;100.00;101053.28;4817108;29;20053;-83
2023/12/27 00:29:58;;;;;;;14.35;2.15;;;5.00;99.90;;;3.53;100.00;101059.31;4755754;29;20066;-82
2023/12/27 00:32:33;;;;;;;19.08;1.70;;;5.00;99.90;;;3.57;100.00;101061.03;4793859;29;20079;-84
2023/12/27 00:34:58;;;;;;;23.67;1.92;;;5.00;99.90;;;3.55;100.00;101071.44;4804184;29;20168;-83
2023/12/27 00:37:24;;;;;;;13.13;1.48;;;5.10;99.90;;;3.62;100.00;101069.63;4869995;28;20044;-84
2023/12/27 00:39:58;;;;;;;12.20;1.77;;;5.10;99.90;;;3.65;100.00;101066.97;4843000;29;21050;-83
2023/12/27 00:42:26;;;;;;;30.13;2.55;;;5.20;99.90;;;3.68;100.00;101083.44;4857499;28;20043;-83
2023/12/27 00:44:52;;;;;;;17.33;2.33;;;5.20;99.90;;;3.67;100.00;101078.22;4867784;28;20165;-83
2023/12/27 00:47:18;;;;;;;17.88;2.33;;;5.20;99.90;;;3.65;100.00;101087.81;4836325;28;20621;-83
2023/12/27 00:49:54;;;;;;;31.92;2.55;;;5.20;99.90;;;3.68;100.00;101087.78;4832940;29;20031;-83
2023/12/27 00:52:22;;;;;;;22.65;1.83;;;5.20;99.90;;;3.69;100.00;101092.97;4856847;28;20040;-83
2023/12/27 00:54:55;;;;;;;22.08;1.75;;;5.20;99.90;;;3.64;100.00;101093.91;4827364;28;20129;-84
2023/12/27 00:57:24;;;;;;;20.75;2.10;;;5.20;99.90;;;3.66;100.00;101103.41;4798666;29;20569;-83
2023/12/27 00:59:50;;;;;;;21.10;2.22;;;;;;;3.59;100.00;101090.50;4825205;29;20036;-83
2023/12/27 01:02:25;;;;;;;14.63;1.85;;;5.10;99.90;;;3.58;100.00;101099.19;4836024;29;20099;-82
2023/12/27 01:05:11;;;;;;;23.13;2.42;;;5.10;99.90;;;3.54;100.00;101102.69;4860605;28;20137;-83
2023/12/27 01:07:43;;;;;;;19.20;1.85;;;5.00;99.90;;;3.55;100.00;101107.91;4839654;28;20042;-83
2023/12/27 01:10:09;;;;;;;23.65;2.53;;;5.00;99.90;;;3.51;100.00;101114.00;4899875;28;20051;-84
2023/12/27 01:12:35;;;;;;;23.73;2.33;;;5.00;99.90;;;3.51;100.00;101118.38;4834437;29;20039;-83
2023/12/27 01:15:01;;;;;;;16.45;2.05;;;5.00;99.90;;;3.51;100.00;101114.00;4863045;28;20044;-83
2023/12/27 01:17:26;;;;;;;23.13;2.97;;;5.00;99.90;;;3.47;100.00;101122.72;4876295;28;20653;-83
2023/12/27 01:20:03;;;;;;;16.17;2.47;;;5.00;99.90;;;3.44;100.00;101126.25;4886434;28;20142;-84
2023/12/27 01:22:30;;;;;;;16.15;2.20;;;5.20;99.90;;;3.38;100.00;101118.50;4925692;28;20035;-83
2023/12/27 01:24:56;;;;;;;17.73;1.92;;;4.90;99.90;;;3.35;100.00;101136.75;4854104;29;20102;-84
2023/12/27 01:27:31;;;;;;;24.25;3.05;;;4.80;99.90;;;3.29;100.00;101140.28;4886796;28;20046;-83
2023/12/27 01:29:57;;;;;;;16.35;2.20;;;4.80;99.90;;;3.19;100.00;101150.78;4859518;29;20640;-84
2023/12/27 01:32:23;;;;;;;20.13;2.30;;;4.70;99.90;;;3.21;100.00;101154.25;4876823;28;20102;-83
2023/12/27 01:34:58;;;;;;;17.17;1.80;;;4.70;99.90;;;3.19;100.00;101164.66;4856379;28;20059;-83
2023/12/27 01:37:24;;;;;;;15.73;2.00;;;4.70;99.90;;;3.13;100.00;101164.69;4843724;28;20061;-83
2023/12/27 01:39:57;;;;;;;23.17;2.50;;;4.60;99.90;;;3.10;100.00;101175.16;4861176;28;20132;-83
2023/12/27 01:42:25;;;;;;;24.88;2.15;;;4.60;99.90;;;3.09;100.00;101178.66;4782499;29;20129;-83
2023/12/27 01:44:51;;;;;;;22.63;2.15;;;4.60;99.90;;;3.04;100.00;101188.22;4853724;28;20046;-83
2023/12/27 01:47:17;;;;;;;20.73;2.08;;;4.60;99.90;;;3.02;100.00;101188.25;4846958;28;20042;-84
2023/12/27 01:49:50;;;;;;;17.23;2.22;;;4.50;99.90;;;2.99;100.00;101190.00;4866206;28;20046;-84
2023/12/27 01:52:16;;;;;;;22.63;2.45;;;4.50;99.90;;;2.97;100.00;101194.34;4865958;28;20944;-83
2023/12/27 01:54:45;;;;;;;26.48;2.75;;;4.40;99.90;;;2.93;100.00;101196.09;4927341;28;20047;-83
2023/12/27 01:57:11;;;;;;;21.95;2.35;;;4.40;99.90;;;2.91;100.00;101208.25;4854747;28;21032;-83
2023/12/27 01:59:46;;;;;;;19.85;1.80;;;4.40;99.90;;;2.89;100.00;101202.19;4880929;28;20540;-82
2023/12/27 02:02:15;;;;;;;18.07;2.40;;;4.40;99.90;;;2.88;100.00;101210.88;4846433;28;20709;-83
2023/12/27 02:04:50;;;;;;;15.18;2.00;;;4.40;99.90;;;2.85;100.00;101208.28;4858790;28;20449;-84
2023/12/27 02:07:16;;;;;;;21.63;1.75;;;4.40;99.90;;;2.82;100.00;101205.72;4875298;28;20175;-82
2023/12/27 02:09:54;;;;;;;27.98;2.40;;;;;;;2.82;100.00;101200.53;4846808;29;20039;-83
2023/12/27 02:12:46;;;;;;;23.52;2.05;;;4.40;99.90;;;2.81;100.00;101201.41;4882715;28;20522;-83
2023/12/27 02:15:14;;;;;;;21.35;2.25;;;4.30;99.90;;;2.81;100.00;101209.22;4833661;28;20036;-81
2023/12/27 02:17:42;;;;;;;25.83;1.85;;;4.40;99.90;;;2.82;100.00;101208.31;4852667;29;20053;-82
2023/12/27 02:20:16;;;;;;;9.88;1.40;;;4.30;99.90;;;2.79;100.00;101213.56;4821377;29;20142;-83
2023/12/27 02:25:35;;;;;;;12.93;1.67;;;4.30;99.90;;;2.72;100.00;101212.75;4752668;29;20055;-83
2023/12/27 02:28:01;;;;;;;14.90;1.90;;;4.30;99.90;;;2.75;100.00;101211.84;4770542;29;20101;-83
2023/12/27 02:30:26;;;;;;;14.13;1.73;;;4.30;99.90;;;2.74;100.00;101208.34;4830714;29;20452;-83
2023/12/27 02:32:52;;;;;;;21.13;2.60;;;4.30;99.90;;;2.75;100.00;101210.09;4825457;29;20033;-83
2023/12/27 02:35:27;;;;;;;13.85;1.80;;;4.30;99.90;;;2.78;100.00;101204.00;4769065;29;20046;-82
2023/12/27 02:37:56;;;;;;;31.05;2.33;;;4.30;99.90;;;2.71;100.00;101213.59;4771759;29;20045;-83
2023/12/27 02:40:29;;;;;;;12.80;1.58;;;4.30;99.90;;;2.69;100.00;101207.53;4776061;29;20071;-84
2023/12/27 02:42:55;;;;;;;18.73;1.92;;;;;;;2.70;100.00;101224.00;4763505;29;20053;-82
2023/12/27 02:45:21;;;;;;;21.35;1.85;;;4.30;99.90;;;2.71;100.00;101217.94;4837497;23;20047;-83
2023/12/27 02:47:47;;;;;;;19.75;2.03;;;4.20;99.90;;;2.70;100.00;101214.47;4854652;29;20072;-84
2023/12/27 02:50:13;;;;;;;27.98;2.17;;;4.20;99.90;;;2.69;100.00;101225.75;4882402;28;20028;-82
2023/12/27 02:52:38;;;;;;;21.95;1.73;;;4.20;99.90;;;2.65;100.00;101214.47;4810731;29;20549;-83
2023/12/27 02:55:12;;;;;;;27.45;2.47;;;4.20;99.90;;;2.59;100.00;101219.75;4863913;29;20056;-82
2023/12/27 02:57:38;;;;;;;19.58;2.30;;;4.20;99.90;;;2.62;100.00;101229.25;4823408;29;20050;-82
2023/12/27 03:00:05;;;;;;;19.80;2.17;;;;;;;2.60;100.00;101229.25;4847221;29;20045;-83
2023/12/27 03:02:32;;;;;;;22.30;2.13;;;;;;;2.56;100.00;101234.50;4864972;29;20179;-82
2023/12/27 03:05:07;;;;;;;18.08;2.28;;;4.20;99.90;;;2.60;100.00;101242.25;4881366;29;20054;-81
2023/12/27 03:07:32;;;;;;;20.25;1.92;;;4.20;99.90;;;2.61;100.00;101244.00;4849010;29;20063;-82
2023/12/27 03:09:58;;;;;;;18.55;2.22;;;4.20;99.90;;;2.61;100.00;101241.41;4855921;29;20062;-82
2023/12/27 03:12:34;;;;;;;30.95;2.33;;;4.10;99.90;;;2.60;100.00;101236.19;4815158;29;20712;-83
2023/12/27 03:15:00;;;;;;;20.55;2.10;;;4.10;99.90;;;2.61;100.00;101240.50;4832993;29;20044;-83
2023/12/27 03:17:25;;;;;;;25.00;2.00;;;4.10;99.90;;;2.58;100.00;101249.19;4856291;29;20521;-82
2023/12/27 03:19:59;;;;;;;15.65;1.88;;;4.10;99.90;;;2.58;100.00;101251.81;4854915;29;20055;-83
2023/12/27 03:22:24;;;;;;;17.52;1.70;;;4.20;99.90;;;2.56;100.00;101263.09;4836939;29;20070;-83
2023/12/27 03:24:52;;;;;;;25.67;2.55;;;4.20;99.90;;;2.53;100.00;101263.97;4867672;23;20038;-83
2023/12/27 03:27:18;;;;;;;22.67;2.42;;;4.10;99.90;;;2.55;100.00;101264.81;4865463;28;20045;-82
2023/12/27 03:29:54;;;;;;;19.30;1.77;;;4.10;99.90;;;2.57;100.00;101263.09;4833564;28;20559;-84
2023/12/27 03:32:20;;;;;;;18.85;1.52;;;4.10;99.90;;;2.57;100.00;101265.69;4882487;28;20042;-83
2023/12/27 03:34:45;;;;;;;27.70;2.47;;;4.10;99.90;;;2.58;100.00;101269.16;4900098;28;20093;-82
2023/12/27 03:37:20;;;;;;;20.15;1.83;;;4.10;99.90;;;2.55;100.00;101269.13;4910032;28;20479;-83
2023/12/27 03:39:50;;;;;;;17.52;2.05;;;4.10;99.90;;;2.53;100.00;101274.38;4839880;28;20052;-82
2023/12/27 03:42:25;;;;;;;30.00;2.05;;;4.00;99.90;;;2.54;100.00;101272.63;4897256;28;20044;-83
2023/12/27 03:44:53;;;;;;;18.58;2.20;;;4.00;99.90;;;2.50;100.00;101273.50;4934881;23;20050;-83
2023/12/27 03:47:28;;;;;;;27.75;2.40;;;4.00;99.90;;;2.44;100.00;101261.38;4877502;28;20551;-82
2023/12/27 03:49:55;;;;;;;18.60;1.70;;;;;;;2.41;100.00;101264.03;4839536;28;20116;-83
2023/12/27 03:52:23;;;;;;;25.27;2.33;;;3.90;99.90;;;2.43;100.00;101265.72;4896561;28;20110;-83
2023/12/27 03:54:58;;;;;;;26.88;1.83;;;3.90;99.90;;;2.40;100.00;101265.75;4898202;28;20034;-82
2023/12/27 03:57:27;;;;;;;17.35;2.60;;;3.90;99.90;;;2.38;100.00;101271.84;4870207;28;20078;-80
2023/12/27 04:00:16;;;;;;;19.00;1.67;;;3.90;99.90;;;2.35;100.00;101271.84;4849453;28;20626;-82
2023/12/27 04:02:45;;;;;;;17.15;2.00;;;;;;;2.35;100.00;101274.44;4856377;28;20053;-83
2023/12/27 04:05:12;;;;;;;19.05;2.53;;;3.80;99.90;;;2.34;100.00;101276.19;4886405;23;20055;-82
2023/12/27 04:07:47;;;;;;;26.45;2.10;;;3.90;99.90;;;2.33;100.00;101277.03;4890996;28;20469;-82
2023/12/27 04:10:15;;;;;;;17.73;2.10;;;3.80;99.90;;;2.31;100.00;101277.91;4903753;28;20069;-83
2023/12/27 04:13:17;;;;;;;23.63;2.47;;;3.80;99.90;;;2.30;100.00;101284.00;4884905;28;21070;-83
2023/12/27 04:15:43;;;;;;;17.63;1.73;;;3.80;99.90;;;2.27;100.00;101292.66;4864717;28;20068;-83
2023/12/27 04:18:11;;;;;;;18.88;1.80;;;3.80;99.90;;;2.22;100.00;101291.81;4889633;28;20539;-81
2023/12/27 04:20:38;;;;;;;27.40;2.25;;;3.80;99.90;;;2.26;100.00;101296.97;4889614;28;20076;-82
2023/12/27 04:23:12;;;;;;;20.30;1.65;;;3.80;99.90;;;2.27;100.00;101297.88;4858817;28;20047;-83
2023/12/27 04:25:38;;;;;;;22.92;2.25;;;3.80;99.90;;;2.24;100.00;101297.84;4841775;28;20040;-81
2023/12/27 04:28:04;;;;;;;20.48;1.85;;;;;;;2.21;100.00;101310.88;4881381;28;20035;-83
2023/12/27 04:30:38;;;;;;;26.27;1.98;;;3.80;99.90;;;2.24;100.00;101301.31;4799621;29;20085;-83
2023/12/27 04:33:04;;;;;;;19.77;1.92;;;;;;;2.28;100.00;101304.78;4866773;28;20047;-83
2023/12/27 04:35:33;;;;;;;22.23;1.95;;;3.80;99.90;;;2.26;100.00;101314.31;4907424;28;20063;-82
2023/12/27 04:37:58;;;;;;;26.02;2.53;;;3.80;99.90;;;2.23;100.00;101302.19;4870945;28;20035;-81
2023/12/27 04:40:35;;;;;;;21.55;2.08;;;3.80;99.90;;;2.25;100.00;101315.19;4836161;28;20137;-82
2023/12/27 04:43:03;;;;;;;23.38;2.97;;;3.80;99.90;;;2.22;100.00;101318.63;4875549;28;20042;-82
2023/12/27 04:45:38;;;;;;;20.88;2.33;;;3.80;99.90;;;2.22;100.00;101328.19;4847008;28;20731;-82
2023/12/27 04:48:07;;;;;;;33.42;2.85;;;3.80;99.90;;;2.22;100.00;101334.22;4845594;29;20058;-83
2023/12/27 04:50:37;;;;;;;24.55;2.50;;;3.80;99.90;;;2.25;100.00;101343.78;4855743;29;20114;-83
2023/12/27 04:53:03;;;;;;;18.42;2.40;;;4.40;99.90;;;2.24;100.00;101337.69;4852569;28;20092;-83
2023/12/27 04:55:29;;;;;;;20.63;1.77;;;3.80;99.90;;;2.25;100.00;101344.63;4845606;28;20051;-82
2023/12/27 04:57:55;;;;;;;20.65;2.00;;;3.80;99.90;;;2.21;100.00;101342.91;4818087;29;21563;-83
2023/12/27 05:00:22;;;;;;;24.67;2.08;;;3.70;99.90;;;2.13;100.00;101342.06;4854857;28;20051;-81
2023/12/27 05:02:57;;;;;;;25.05;2.08;;;3.70;99.90;;;2.14;100.00;101346.41;4858670;29;20036;-82
2023/12/27 05:05:23;;;;;;;19.85;1.95;;;3.70;99.90;;;2.10;100.00;101346.41;4861596;23;20571;-83
2023/12/27 05:07:49;;;;;;;26.15;2.28;;;3.70;99.90;;;2.08;100.00;101346.41;4892084;28;20042;-81
2023/12/27 05:10:15;;;;;;;12.95;1.73;;;3.70;99.90;;;2.10;100.00;101355.06;4894651;28;20040;-83
2023/12/27 05:12:52;;;;;;;21.77;1.80;;;3.60;99.90;;;2.03;100.00;101363.72;4906834;28;20046;-82
2023/12/27 05:15:19;;;;;;;23.92;2.55;;;3.60;99.90;;;2.03;100.00;101362.00;4884677;28;20629;-82
2023/12/27 05:17:54;;;;;;;20.67;2.05;;;;;;;2.05;100.00;101362.88;4893497;28;20066;-83
2023/12/27 05:20:20;;;;;;;31.73;2.60;;;3.50;99.90;;;2.01;100.00;101366.34;4900858;28;20123;-82
2023/12/27 05:22:46;;;;;;;21.45;2.03;;;3.60;99.90;;;1.97;100.00;101374.13;4874022;28;20172;-82
2023/12/27 05:25:35;;;;;;;18.70;2.17;;;3.60;99.90;;;1.99;100.00;101367.22;4864974;28;20039;-83
2023/12/27 05:28:01;;;;;;;21.60;2.22;;;3.50;99.90;;;1.94;100.00;101376.72;4874851;28;20060;-82
2023/12/27 05:30:26;;;;;;;19.48;1.85;;;3.50;99.90;;;1.94;100.00;101376.72;4884682;28;20039;-80
2023/12/27 05:32:52;;;;;;;21.13;1.98;;;3.50;99.90;;;1.90;100.00;101373.28;4864460;28;20030;-82
2023/12/27 05:35:18;;;;;;;22.70;2.20;;;3.50;99.90;;;1.92;100.00;101389.69;4874554;28;20041;-82
2023/12/27 05:37:53;;;;;;;22.42;2.53;;;3.50;99.90;;;1.91;100.00;101382.78;4895505;28;20482;-83
2023/12/27 05:40:18;;;;;;;23.77;2.33;;;3.50;99.90;;;1.89;100.00;101391.44;4881392;28;20027;-82
2023/12/27 05:42:44;;;;;;;19.30;1.85;;;3.60;99.90;;;1.93;100.00;101390.59;4871929;28;20066;-82
2023/12/27 05:45:17;;;;;;;25.63;2.00;;;3.50;99.90;;;1.94;100.00;101392.31;4861249;29;20112;-83
2023/12/27 05:47:43;;;;;;;20.38;1.70;;;3.60;99.90;;;1.97;100.00;101394.91;4853733;28;20288;-81
2023/12/27 05:50:09;;;;;;;22.75;1.65;;;3.50;99.90;;;1.96;100.00;101393.16;4832435;28;20732;-81
2023/12/27 05:52:35;;;;;;;20.23;2.08;;;3.60;99.90;;;1.94;100.00;101395.75;4846508;29;20135;-81
2023/12/27 05:55:01;;;;;;;25.63;2.80;;;3.60;99.90;;;1.95;100.00;101407.03;4881467;28;20499;-82
2023/12/27 05:57:27;;;;;;;24.23;2.20;;;3.60;99.90;;;1.94;100.00;101400.94;4890733;28;20032;-82
2023/12/27 05:59:58;;;;;;;26.90;2.47;;;3.60;99.90;;;1.96;100.00;101396.63;4906975;28;20034;-83
2023/12/27 06:02:26;;;;;;;24.52;2.25;;;3.50;99.90;;;1.94;100.00;101397.50;4871598;28;20064;-82
2023/12/27 06:04:52;;;;;;;26.30;2.58;;;;;;;1.91;100.00;101400.09;4852219;28;20067;-83
2023/12/27 06:07:18;;;;;;;21.33;1.70;;;3.50;99.90;;;1.87;100.00;101395.78;4882891;28;20513;-82
2023/12/27 06:09:51;;;;;;;24.73;2.65;;;3.50;99.90;;;1.91;100.00;101413.94;4891436;28;20056;-84
2023/12/27 06:12:18;;;;;;;14.88;2.08;;;3.50;99.90;;;1.94;100.00;101413.06;4840121;28;20979;-83
2023/12/27 06:14:45;;;;;;;19.00;2.10;;;3.50;99.90;;;1.90;100.00;101411.34;4854846;28;20422;-83
2023/12/27 06:17:18;;;;;;;19.70;1.80;;;3.50;99.90;;;1.88;100.00;101416.56;4860482;28;20042;-83
2023/12/27 06:19:46;;;;;;;21.05;1.95;;;3.50;99.90;;;1.92;100.00;101412.22;4862521;28;20039;-82
2023/12/27 06:22:16;;;;;;;21.20;2.22;;;3.50;99.90;;;1.88;100.00;101426.94;4886034;28;20055;-82
2023/12/27 06:25:04;;;;;;;31.00;2.50;;;3.20;99.90;;;1.89;100.00;101439.06;4816731;28;20032;-83
2023/12/27 06:27:32;;;;;;;27.75;2.28;;;3.50;99.90;;;1.89;100.00;101443.38;4886346;28;20046;-82
2023/12/27 06:29:58;;;;;;;23.58;2.20;;;3.50;99.90;;;1.85;100.00;101456.34;4833452;28;20035;-83
2023/12/27 06:32:29;;;;;;;21.75;1.95;;;3.40;99.90;;;1.85;100.00;101455.50;4880832;28;20098;-83
2023/12/27 06:34:55;;;;;;;20.10;2.00;;;3.40;99.90;;;1.82;100.00;101453.78;4862229;28;20040;-84
2023/12/27 06:37:21;;;;;;;26.23;2.30;;;3.40;99.90;;;1.83;100.00;101458.09;4867685;28;20112;-82
2023/12/27 06:39:47;;;;;;;31.35;3.10;;;3.30;99.90;;;1.79;100.00;101458.97;4850107;28;21342;-82
2023/12/27 06:42:15;;;;;;;25.92;1.98;;;3.30;99.90;;;1.77;100.00;101468.50;4871829;28;21359;-83
2023/12/27 06:44:50;;;;;;;28.17;2.17;;;;;;;1.76;100.00;101469.34;4850704;28;20080;-84
2023/12/27 06:47:16;;;;;;;23.50;2.60;;;3.20;99.90;;;1.74;100.00;101473.66;4824776;28;20043;-83
2023/12/27 06:49:54;;;;;;;28.63;1.92;;;3.30;99.90;;;1.75;100.00;101482.31;4885218;28;20043;-84
2023/12/27 06:52:20;;;;;;;25.95;2.08;;;3.20;99.90;;;1.62;100.00;101476.22;4875174;28;20055;-82
2023/12/27 06:54:46;;;;;;;23.20;2.45;;;;;;;1.60;100.00;101477.97;4829192;28;20435;-83
2023/12/27 06:57:35;;;;;;;24.13;2.08;;;3.10;99.90;;;1.54;100.00;101484.00;4840260;29;20043;-82
2023/12/27 07:00:06;;;;;;;29.95;2.88;;;3.10;99.90;;;1.50;100.00;101487.44;4782852;29;20518;-83
2023/12/27 07:02:42;;;;;;;25.25;2.30;;;3.00;99.90;;;1.47;100.00;101494.34;4813585;29;20391;-83
2023/12/27 07:05:08;;;;;;;23.63;1.90;;;3.00;99.90;;;1.43;100.00;101491.75;4809994;29;20188;-83
2023/12/27 07:07:34;;;;;;;16.92;2.08;;;3.00;99.90;;;1.43;100.00;101499.53;4834645;28;20063;-83
2023/12/27 07:10:10;;;;;;;26.23;2.70;;;;;;;1.43;100.00;101501.28;4831219;28;20074;-83
2023/12/27 07:12:35;;;;;;;38.78;2.47;;;2.90;99.90;;;1.40;100.00;101503.84;4872016;28;20040;-83
2023/12/27 07:15:13;;;;;;;32.33;2.45;;;2.90;99.90;;;1.36;100.00;101510.78;4854891;28;20049;-83
2023/12/27 07:17:39;;;;;;;22.50;1.60;;;2.90;99.90;;;1.35;100.00;101515.94;4875030;28;20046;-82
2023/12/27 07:20:05;;;;;;;24.70;2.50;;;2.80;99.90;;;1.27;100.00;101510.72;4876770;28;20057;-83
2023/12/27 07:22:32;;;;;;;32.15;2.53;;;2.80;99.90;;;1.28;100.00;101516.78;4898465;28;20085;-82
2023/12/27 07:25:06;;;;;;;30.77;2.35;;;2.80;99.90;;;1.23;100.00;101507.25;4877993;28;20119;-83
2023/12/27 07:27:35;;;;;;;32.50;2.53;;;2.80;99.90;;;1.20;100.00;101512.41;4831625;29;20041;-83
2023/12/27 07:30:10;;;;;;;25.48;2.15;;;2.80;99.90;;;1.23;100.00;101533.22;4792345;29;20041;-82
2023/12/27 07:32:36;;;;;;;25.52;3.20;;;2.80;99.90;;;1.20;100.00;101534.91;4844674;29;20084;-83
2023/12/27 07:35:25;;;;;;;18.23;2.10;;;;;;;1.21;100.00;101529.72;4848487;28;20042;-83
2023/12/27 07:37:54;;;;;;;22.33;2.55;;;2.80;99.90;;;1.20;100.00;101540.09;4892438;28;20100;-83
2023/12/27 07:40:33;;;;;;;;;;;;;;;;;;;;;
2023/12/27 07:42:59;;;;;;;21.98;2.90;;;2.80;99.90;;;1.19;100.00;101538.38;4841132;28;20028;-83
2023/12/27 07:45:25;;;;;;;28.58;2.83;;;2.80;99.90;;;1.21;100.00;101547.03;4863956;28;20053;-83
2023/12/27 07:48:16;;;;;;;28.25;3.38;;;2.70;99.90;;;1.19;100.00;101535.78;4885890;28;20050;-84
2023/12/27 07:50:42;;;;;;;24.58;3.00;;;2.70;99.90;;;1.16;100.00;101533.16;4861066;28;20128;-82
2023/12/27 07:53:08;;;;;;;20.50;2.13;;;2.70;99.90;;;1.14;100.00;101542.66;4812031;28;20043;-83
2023/12/27 07:55:34;;;;;;;29.20;3.15;;;2.70;99.90;;;1.14;100.00;101545.25;4859366;28;20036;-84
2023/12/27 07:58:08;;;;;;;26.13;2.75;;;2.70;99.90;;;1.13;100.00;101551.31;4860347;28;20078;-82
2023/12/27 08:00:37;;;;;;;23.85;2.55;;;2.70;99.90;;;1.13;100.00;101551.31;4874152;28;20051;-83
2023/12/27 08:03:16;;;;;;;23.45;2.20;;;2.70;99.90;;;1.13;100.00;101551.31;4859472;28;20039;-83
2023/12/27 08:05:52;;;;;;;;;;;;;;;;;;;;;
2023/12/27 08:08:18;;;;;;;;;;;2.70;99.90;;;1.12;100.00;101565.13;4906206;28;20055;-82
2023/12/27 08:10:46;;;;;;;18.88;2.08;;;;;;;1.11;100.00;101566.84;4882315;28;20380;-83
2023/12/27 08:13:21;;;;;;;30.63;2.20;;;2.70;99.90;;;1.09;100.00;101568.56;4867162;28;20039;-83
2023/12/27 08:15:47;;;;;;;16.80;2.03;;;2.70;99.90;;;1.12;100.00;101572.91;4853940;28;20118;-83
2023/12/27 08:18:15;;;;;;;21.27;1.88;;;2.70;99.90;;;1.14;100.00;101576.38;4856238;28;20505;-83
2023/12/27 08:20:48;;;;;;;29.92;2.28;;;2.70;99.90;;;1.17;100.00;101582.47;4899683;28;20074;-83
2023/12/27 08:23:16;;;;;;;18.58;2.10;;;2.70;99.90;;;1.19;100.00;101579.88;4891177;28;20046;-82
2023/12/27 08:25:53;;;;;;;21.15;1.90;;;2.70;99.90;;;1.20;100.00;101579.00;4864186;28;20032;-82
2023/12/27 08:28:19;;;;;;;16.55;2.40;;;2.80;99.90;;;1.22;100.00;101585.06;4864584;28;20047;-82
2023/12/27 08:30:47;;;;;;;20.15;2.00;;;2.80;99.90;;;1.27;100.00;101593.75;4894890;28;20480;-83
2023/12/27 08:33:25;;;;;;;26.20;2.20;;;2.80;99.90;;;1.31;100.00;101589.44;4834032;28;20502;-83
2023/12/27 08:36:01;;;;;;;33.45;2.83;;;2.80;99.90;;;1.34;100.00;101600.72;4892306;28;20043;-83
2023/12/27 08:38:28;;;;;;;19.05;2.10;;;2.90;99.90;;;1.36;100.00;101609.38;4870459;28;20115;-83
2023/12/27 08:41:02;;;;;;;21.85;2.17;;;2.90;99.90;;;1.43;100.00;101605.09;4884799;28;20148;-83
2023/12/27 08:43:29;;;;;;;26.23;2.00;;;3.00;99.90;;;1.46;100.00;101609.44;4830442;28;20048;-83
2023/12/27 08:45:56;;;;;;;26.92;2.50;;;3.00;99.90;;;1.51;100.00;101618.09;4894266;28;20053;-83
2023/12/27 08:48:29;;;;;;;27.38;2.40;;;3.00;99.90;;;1.53;100.00;101608.59;4853168;28;20484;-83
2023/12/27 08:50:55;;;;;;;22.83;1.80;;;3.10;99.90;;;1.58;100.00;101610.34;4880371;28;20043;-83
2023/12/27 08:53:23;;;;;;;17.55;2.20;;;3.10;99.90;;;1.64;100.00;101625.06;4876608;28;20433;-83
2023/12/27 08:55:49;;;;;;;18.42;2.40;;;3.20;99.90;;;1.70;100.00;101630.28;4854438;28;20187;-84
2023/12/27 08:58:15;;;;;;;16.50;2.20;;;3.20;99.90;;;1.73;100.00;101627.72;4886901;28;20130;-84
2023/12/27 09:01:18;;;;;;;24.65;2.58;;;3.30;99.90;;;1.81;100.00;101639.03;4868661;28;20090;-84
2023/12/27 09:03:48;;;;;;;22.55;3.20;;;3.30;99.90;;;1.84;100.00;101649.41;4916983;28;20926;-83
2023/12/27 09:06:23;;;;;;;30.45;3.28;;;3.30;99.90;;;1.91;100.00;101639.06;4892717;28;20097;-84
2023/12/27 09:08:49;;;;;;;29.23;2.63;;;3.40;99.90;;;1.96;100.00;101635.59;4857917;28;20174;-83
2023/12/27 09:11:18;;;;;;;29.63;3.30;;;3.40;99.90;;;2.01;100.00;101635.63;4861942;28;20048;-83
2023/12/27 09:13:55;;;;;;;28.83;2.30;;;3.50;99.90;;;2.08;100.00;101634.78;4891592;28;20049;-85
2023/12/27 09:16:39;;;;;;;21.70;2.20;;;3.50;99.90;;;2.12;100.00;101639.13;4847277;28;20116;-82
2023/12/27 09:19:17;;;;;;;27.20;2.38;;;3.60;99.90;;;2.20;100.00;101645.22;4857141;28;20039;-83
2023/12/27 09:21:50;;;;;;;24.73;2.45;;;3.70;99.90;;;2.29;100.00;101643.47;4888552;28;20062;-83
2023/12/27 09:24:17;;;;;;;23.00;2.30;;;;;;;2.33;100.00;101647.81;4893825;28;20429;-84
2023/12/27 09:27:17;;;;;;;39.03;2.95;;;3.80;99.90;;;2.38;100.00;101656.53;4887092;28;21662;-83
2023/12/27 09:29:55;;;;;;;29.48;3.05;;;;;;;2.44;100.00;101661.69;4866122;28;20061;-83
2023/12/27 09:32:48;;;;;;;23.45;3.70;;;;;;;2.48;100.00;101666.03;4883229;28;20102;-83
2023/12/27 09:35:17;;;;;;;22.90;2.17;;;3.90;99.90;;;2.52;100.00;101669.53;4821036;29;20731;-84
2023/12/27 09:38:14;;;;;;;27.35;2.45;;;4.00;99.90;;;2.57;100.00;101667.78;4794266;29;20054;-83
2023/12/27 09:40:50;;;;;;;27.77;2.30;;;4.00;99.90;;;2.63;100.00;101673.88;4779431;29;20029;-83
2023/12/27 09:43:17;;;;;;;22.40;2.47;;;4.10;99.90;;;2.72;100.00;101677.34;4710420;29;20040;-83
2023/12/27 09:45:54;;;;;;;24.45;2.70;;;4.20;99.90;;;2.81;100.00;101682.59;4762824;29;20045;-82
2023/12/27 09:48:40;;;;;;;30.15;2.65;;;4.20;99.90;;;2.91;100.00;101686.03;4798833;29;20124;-83
2023/12/27 09:51:22;;;;;;;25.43;2.63;;;;;;;2.95;100.00;101675.63;4790318;29;20445;-82
2023/12/27 09:53:58;;;;;;;23.55;2.25;;;4.40;99.90;;;3.01;100.00;101679.97;4801649;29;20048;-82
2023/12/27 09:56:53;;;;;;;22.42;3.42;;;4.40;99.90;;;3.06;100.00;101691.25;4754528;29;20517;-84
2023/12/27 09:59:38;;;;;;;24.13;2.35;;;4.40;99.90;;;3.08;100.00;101686.91;4745275;29;20055;-82
2023/12/27 10:02:17;;;;;;;22.17;2.83;;;;;;;3.16;100.00;101694.72;4730153;29;20069;-84
2023/12/27 10:05:20;;;;;;;;;;;;;;;;;;;;;
2023/12/27 10:07:49;;;;;;;28.30;3.30;;;4.70;99.90;;;3.34;100.00;101699.91;4680792;29;21342;-84
2023/12/27 10:10:32;;;;;;;28.30;2.55;;;4.70;99.90;;;3.39;100.00;101690.38;4705760;29;20530;-84
2023/12/27 10:13:28;;;;;;;27.98;2.95;;;4.80;99.90;;;3.51;100.00;101680.78;4802432;29;20048;-82
2023/12/27 10:16:27;;;;;;;22.80;3.22;;;4.90;99.90;;;3.62;100.00;101679.03;4812883;29;20615;-83
2023/12/27 10:19:16;;;;;;;23.48;3.17;;;;;;;3.69;100.00;101675.53;4812374;29;20044;-84
2023/12/27 10:22:02;;;;;;;25.05;2.45;;;5.10;99.90;;;3.76;100.00;101664.22;4798512;29;20426;-84
2023/12/27 10:25:11;;;;;;;26.75;3.50;;;5.10;99.90;;;3.87;100.00;101666.81;4764314;29;20057;-82
2023/12/27 10:27:39;;;;;;;22.17;2.20;;;5.20;99.90;;;3.92;100.00;101661.56;4777958;29;20136;-82
2023/12/27 10:30:18;;;;;;;22.42;2.55;;;;;;;4.01;100.00;101661.50;4750653;29;20058;-83
2023/12/27 10:33:39;;;;;;;20.52;2.97;;;5.40;99.90;;;4.08;100.00;101665.81;4769671;29;20048;-84
2023/12/27 10:36:09;;;;;;;19.00;2.28;;;5.40;99.90;;;4.12;100.00;101664.94;4751652;29;20139;-83
2023/12/27 10:39:17;;;;;;;26.65;2.65;;;5.50;99.90;;;4.19;100.00;101668.38;4747614;29;20076;-83
2023/12/27 10:41:40;;;;;;;;;;;;;;;;;;;;;
2023/12/27 10:44:19;;;;;;;26.05;2.72;;;5.60;99.90;;;4.23;100.00;101660.56;4759354;29;20424;-82
2023/12/27 10:46:46;;;;;;;17.48;2.13;;;5.60;99.90;;;4.29;100.00;101657.03;4751050;29;20039;-84